Flugplatz Korbach

Für EDGK sind keine METAR/TAF Berichte vorhanden.
Es werden die Flugwettermeldungen vom Flugplatz Fritzlar Airport in 32 km Entfernung angezeigt.

Bericht für ETHF

vom 28.09. um 22:20 UTC

Wind 2 kt aus 310°

Sichtweite 10 km oder mehr

aufgebrochene Bewölkung in 14000 ft

aufgebrochene Bewölkung in 24000 ft

Temperatur 9.0°C

Taupunkt 8.0°C

Luftfeuchtigkeit 93%

Luftdruck 1020 hPa

ETHF 282220Z 31002KT 9999 BKN140 BKN240 09/08 Q1020 BLU

Prognose für ETHF

vom 28.09. um 13:20 UTC

Am 28.09. zwischen 14:00 UTC und 23:00 UTC

variable Windrichtung mit 3 kt

Sichtweite 10 km oder mehr

keine signifikanten Wettererscheinungen

gering bewölkt in 3000 ft

aufgebrochene Bewölkung in 20000 ft

TAF ETHF 281320Z 2814/2823 VRB03KT 9999 NSW FEW030 BKN200
Impressum